KGBD

Great Bend Municipal Airport

Great Bend, Kansas, USA
METAR KGBD 231017Z AUTO 01005KT 3/4SM BR OVC002 M03/M03 A3019 RMK AO2 FZRANO
Observed Flight Rules
Feb-23 @ 10:17 UTC (14 minutes ago) Instrument Flight Rules
Wind Visibility Clouds Conditions
10° at 5 knots 3/4 miles
  • Overcast at 200' AGL
  • Mist
Temperatures Readings
Current -3°C / 27°F
Dewpoint -3°C / 27°F
Humidity 100%
Altimeter 30.19" Hg
Pressure 1022 hPa
Elevation 575
METAR KGBD 231017Z AUTO 01005KT 3/4SM BR OVC002 M03/M03 A3019 RMK AO2 FZRANO
Observed Flight Rules
Feb-23 @ 10:17 UTC
(14 minutes ago)
LIFR
Wind Visibility
10° at 5 knots 3/4 miles
Clouds
  • Overcast at 200' AGL
Conditions
  • Mist
Temperature Dewpoint
-3°C / 27°F -3°C / 27°F
Humidity Altimeter Pressure
100% 30.19" Hg 1022 hPa